Flight Track Log - Related Links

Times and Time Zones

All times are in EDT time to prevent confusion due to time zone crossing. See the EJA982 flight status page for this flight to view local times or setup timezone preferences in your user account.

Time Position Orientation Groundspeed Altitude Reporting Facility
EDT Latitude Longitude Course Direction KTS MPH feet Rate Location/Type
Sun 12:19:00 PM 41.0602 -101.6723 265° West  Level Estimated
Sun 12:20:00 PM 41.0483 -101.8369 265° West  Level Estimated
Sun 12:21:00 PM 41.0363 -102.0014 265° West  Level Estimated
Sun 12:22:00 PM 41.0240 -102.1659 264° West  Level Estimated
Sun 12:22:58 PM 41.1339 -100.6914 264° West 184 212 3,300  Level Denver Center
Sun 12:23:00 PM 41.0115 -102.3303 264° West  Level Estimated
Sun 12:24:00 PM 40.9987 -102.4946 264° West  Level Estimated
Sun 12:24:00 PM 41.1383 -100.7761 274° West 217 250 7,100  Level Denver Center
Sun 12:25:00 PM 40.9857 -102.6589 264° West  Level Estimated
Sun 12:25:02 PM 41.1372 -100.8667 269° West 247 284 10,600  Level Denver Center
Sun 12:26:00 PM 40.9725 -102.8231 264° West  Level Estimated
Sun 12:26:04 PM 41.1369 -100.9950 270° West 310 357 12,700  Level Denver Center
Sun 12:27:00 PM 40.9590 -102.9872 264° West  Level Estimated
Sun 12:27:06 PM 41.1344 -101.1128 268° West 331 381 14,700  Level Denver Center
Sun 12:28:00 PM 40.9453 -103.1513 264° West  Level Estimated
Sun 12:29:10 PM 41.1314 -101.3872 269° West 361 415 18,600  Level Denver Center
Sun 12:30:12 PM 41.1294 -101.5400 269° West 370 426 20,000 1,355 Climbing Denver Center
Sun 12:31:14 PM 41.1278 -101.6725 269° West 375 432 21,400 1,161 Climbing Denver Center
Sun 12:32:16 PM 41.1250 -101.8333 269° West 387 445 22,400 1,065 Climbing Denver Center
Sun 12:33:18 PM 41.1219 -101.9753 268° West 399 459 23,600 1,161 Climbing Denver Center
Sun 12:34:20 PM 41.1189 -102.1419 269° West 404 465 24,800 1,016 Climbing Denver Center
Sun 12:35:22 PM 41.1139 -102.2900 267° West 418 481 25,700 1,065 Climbing Denver Center
Sun 12:36:24 PM 41.1111 -102.4394 269° West 424 488 27,000 1,306 Climbing Denver Center
Sun 12:37:26 PM 41.1058 -102.6150 268° West 428 493 28,400 1,113 Climbing Denver Center
Sun 12:38:28 PM 41.1031 -102.7689 269° West 434 499 29,300 1,113 Climbing Denver Center
Sun 12:39:30 PM 41.0972 -102.9522 268° West 446 513 30,700 1,161 Climbing Denver Center
Sun 12:40:32 PM 41.0714 -103.1125 258° West 459 528 31,700 1,065 Climbing Denver Center
Sun 12:41:34 PM 41.0367 -103.2981 256° West 464 534 32,900 968 Climbing Denver Center
Sun 12:42:36 PM 41.0061 -103.4594 256° West 471 542 33,700 581 Climbing Denver Center
Sun 12:43:38 PM 40.9733 -103.6406 257° West 478 550 34,100 290 Climbing Denver Center
Sun 12:44:40 PM 40.9392 -103.8153 256° West 490 564 34,300 960 Climbing Denver Center
Sun 12:45:43 PM 40.9069 -103.9872 256° West 483 556 36,100 1,824 Climbing Denver Center
Sun 12:46:45 PM 40.8756 -104.1492 256° West 461 531 38,100 2,081 Climbing Denver Center
Sun 12:47:47 PM 40.8389 -104.3369 256° West 444 511 40,400 1,694 Climbing Denver Center
Sun 12:48:49 PM 40.8089 -104.4872 255° West 430 495 41,600 1,016 Climbing Denver Center
Sun 12:49:51 PM 40.7797 -104.6372 256° West 424 488 42,500 677 Climbing Denver Center
Sun 12:50:53 PM 40.7483 -104.7875 255° West 428 493 43,000 242 Climbing Denver Center
Sun 12:51:55 PM 40.7181 -104.9439 256° West 440 506 43,000  Level Denver Center
Sun 12:52:57 PM 40.6789 -105.1336 255° West 448 516 43,000  Level Denver Center
Sun 12:53:59 PM 40.6461 -105.2928 255° West 451 519 43,000  Level Denver Center
Sun 12:55:01 PM 40.6119 -105.4550 255° West 460 529 43,000  Level Denver Center
Sun 12:56:03 PM 40.5781 -105.6192 255° West 466 536 43,000  Level Denver Center
Sun 12:57:05 PM 40.5431 -105.7831 254° West 468 539 43,000  Level Denver Center
Sun 12:58:07 PM 40.5083 -105.9472 255° West 469 540 43,000  Level Denver Center
Sun 12:59:09 PM 40.4664 -106.1447 254° West 470 541 43,000  Level Denver Center
Sun 01:00:11 PM 40.4328 -106.3000 254° West 473 544 43,000  Level Denver Center
Sun 01:01:13 PM 40.3997 -106.4528 254° West 472 543 43,000 48 Level Denver Center
Sun 01:02:15 PM 40.3561 -106.6503 254° West 472 543 43,100  Climbing Denver Center
Sun 01:03:17 PM 40.3200 -106.8125 254° West 467 537 43,000 -48 Descending Denver Center
Sun 01:04:19 PM 40.2833 -106.9800 254° West 465 535 43,000  Level Denver Center
Sun 01:05:21 PM 40.2419 -107.1622 253° West 468 539 43,000  Level Denver Center
Sun 01:06:23 PM 40.2067 -107.3194 254° West 469 540 43,000  Level Denver Center
Sun 01:07:25 PM 40.1656 -107.5031 254° West 471 542 43,000  Level Denver Center
Sun 01:08:28 PM 40.1292 -107.6603 253° West 472 543 43,000  Level Denver Center
Sun 01:09:30 PM 40.0864 -107.8444 253° West 475 547 43,000  Level Denver Center
Sun 01:10:32 PM 40.0550 -108.0036 256° West 476 548 43,000  Level Denver Center
Sun 01:11:34 PM 40.0283 -108.1917 260° West 474 545 43,000  Level Denver Center
Sun 01:12:36 PM 40.0047 -108.3514 259° West 470 541 43,000  Level Denver Center
Sun 01:13:38 PM 39.9772 -108.5361 259° West 470 541 43,000  Level Denver Center
Sun 01:14:16 PM 39.9614 -108.6436 259° West 473 544 43,000  Level Salt Lake Center
Sun 01:15:18 PM 39.9367 -108.8022 259° West 472 543 43,000  Level Salt Lake Center
Sun 01:16:19 PM 39.9089 -108.9892 259° West 476 548 43,000  Level Salt Lake Center
Sun 01:17:21 PM 39.8833 -109.1481 258° West 474 545 43,000  Level Salt Lake Center
Sun 01:18:23 PM 39.8536 -109.3344 258° West 474 545 43,000  Level Salt Lake Center
Sun 01:19:25 PM 39.8272 -109.4939 258° West 473 544 43,000  Level Salt Lake Center
Sun 01:19:50 PM 39.8139 -109.5744 258° West 474 545 43,000  Level Denver Center
Sun 01:20:27 PM 39.8014 -109.6558 259° West 477 549 43,000  Level Salt Lake Center
Sun 01:21:29 PM 39.7708 -109.8433 258° West 477 549 43,000  Level Salt Lake Center
Sun 01:22:31 PM 39.7442 -110.0050 258° West 478 550 43,000  Level Salt Lake Center
Sun 01:23:33 PM 39.7128 -110.1936 258° West 479 551 43,000  Level Salt Lake Center
Sun 01:24:35 PM 39.6872 -110.3550 258° West 479 551 43,000  Level Salt Lake Center
Sun 01:25:37 PM 39.6547 -110.5419 257° West 477 549 43,000  Level Salt Lake Center
Sun 01:26:39 PM 39.6278 -110.7042 258° West 480 552 43,000  Level Salt Lake Center
Sun 01:27:40 PM 39.5956 -110.8944 258° West 484 557 43,000  Level Salt Lake Center
Sun 01:28:42 PM 39.5658 -111.0558 257° West 482 555 43,000  Level Salt Lake Center
Sun 01:29:44 PM 39.5336 -111.2461 258° West 484 557 43,000  Level Salt Lake Center
Sun 01:30:46 PM 39.5042 -111.4028 256° West 488 562 43,000  Level Salt Lake Center
Sun 01:31:48 PM 39.4753 -111.5742 258° West 488 562 43,000 48 Level Salt Lake Center
Sun 01:32:50 PM 39.4422 -111.7444 256° West 489 563 43,100  Climbing Salt Lake Center
Sun 01:33:52 PM 39.4056 -111.9483 257° West 486 559 43,000 -48 Descending Salt Lake Center
Sun 01:34:54 PM 39.3742 -112.1175 257° West 484 557 43,000  Level Salt Lake Center
Sun 01:35:56 PM 39.3433 -112.2878 257° West 485 558 43,000  Level Salt Lake Center
Sun 01:36:58 PM 39.3128 -112.4608 257° West 492 566 43,000  Level Salt Lake Center
Sun 01:38:00 PM 39.2706 -112.6522 254° West 492 566 43,000  Level Salt Lake Center
Sun 01:39:02 PM 39.2319 -112.8208 254° West 491 565 43,000  Level Salt Lake Center
Sun 01:40:04 PM 39.1936 -112.9892 254° West 493 567 43,000  Level Salt Lake Center
Sun 01:41:06 PM 39.1544 -113.1583 253° West 493 567 43,000 48 Level Salt Lake Center
Sun 01:42:08 PM 39.1153 -113.3267 253° West 494 568 43,100  Climbing Salt Lake Center
Sun 01:43:10 PM 39.0756 -113.4958 253° West 497 572 43,000 -48 Descending Salt Lake Center
Sun 01:44:12 PM 39.0281 -113.6981 253° West 494 568 43,000  Level Salt Lake Center
Sun 01:45:14 PM 38.9883 -113.8661 253° West 495 570 43,000  Level Salt Lake Center
Sun 01:46:16 PM 38.9486 -114.0369 253° West 499 574 43,000  Level Salt Lake Center
Sun 01:47:18 PM 38.9075 -114.2047 253° West 496 571 43,000  Level Salt Lake Center
Sun 01:48:20 PM 38.8664 -114.3725 253° West 496 571 43,000  Level Salt Lake Center
Sun 01:49:22 PM 38.8256 -114.5408 253° West 496 571 43,000  Level Salt Lake Center
Sun 01:50:24 PM 38.7772 -114.7406 253° West 491 565 43,000  Level Salt Lake Center
Sun 01:51:26 PM 38.7353 -114.9069 252° West 493 567 43,000  Level Salt Lake Center
Sun 01:52:28 PM 38.6917 -115.0761 252° West 498 573 43,000  Level Salt Lake Center
Sun 01:53:30 PM 38.6544 -115.2442 254° West 497 572 43,000  Level Salt Lake Center
Sun 01:54:32 PM 38.6272 -115.4281 259° West 491 565 43,000  Level Salt Lake Center
Sun 01:55:34 PM 38.6008 -115.5992 259° West 491 565 43,000  Level Salt Lake Center
Sun 01:56:36 PM 38.5744 -115.7711 259° West 493 567 43,000  Level Salt Lake Center
Sun 01:57:38 PM 38.5472 -115.9431 259° West 494 568 43,000  Level Salt Lake Center
Sun 01:58:40 PM 38.5147 -116.1481 259° West 491 565 43,000  Level Salt Lake Center
Sun 01:59:42 PM 38.4864 -116.3181 258° West 491 565 43,000  Level Salt Lake Center
Sun 02:00:44 PM 38.4586 -116.4894 258° West 493 567 43,000  Level Salt Lake Center
Sun 02:01:48 PM 38.4308 -116.6594 258° West 492 566 43,000  Level Oakland Center
Sun 02:02:50 PM 38.4019 -116.8292 258° West 491 565 43,000  Level Oakland Center
Sun 02:03:52 PM 38.3683 -117.0317 258° West 492 566 43,000  Level Oakland Center
Sun 02:04:53 PM 38.3425 -117.1817 258° West 493 567 43,000  Level Oakland Center
Sun 02:05:55 PM 38.3119 -117.3525 257° West 494 568 43,000  Level Oakland Center
Sun 02:06:57 PM 38.2808 -117.5358 258° West 496 571 43,000  Level Oakland Center
Sun 02:07:58 PM 38.2500 -117.7044 257° West 493 567 43,000  Level Oakland Center
Sun 02:09:00 PM 38.2147 -117.9081 258° West 493 567 43,000 -194 Level Oakland Center
Sun 02:10:02 PM 38.1833 -118.0786 257° West 497 572 42,600 -732 Descending Oakland Center
Sun 02:11:03 PM 38.1536 -118.2461 257° West 505 581 41,500 -1,122 Descending Oakland Center
Sun 02:12:05 PM 38.1203 -118.4283 257° West 510 587 40,300 -1,113 Descending Oakland Center
Sun 02:13:07 PM 38.0878 -118.6072 257° West 520 598 39,200 -1,073 Descending Oakland Center
Sun 02:14:08 PM 38.0542 -118.7828 256° West 514 592 38,100 -585 Descending Oakland Center
Sun 02:15:10 PM 38.0233 -118.9550 257° West 503 579 38,000 -49 Descending Oakland Center
Sun 02:16:11 PM 37.9881 -119.1400 256° West 508 585 38,000  Level Oakland Center
Sun 02:17:13 PM 37.9556 -119.3147 257° West 509 586 38,000  Level Oakland Center
Sun 02:18:15 PM 37.9217 -119.4883 256° West 508 585 38,000  Level Oakland Center
Sun 02:19:16 PM 37.8869 -119.6633 256° West 509 586 38,000 -341 Level Oakland Center
Sun 02:20:18 PM 37.8497 -119.8697 257° West 504 580 37,300 -1,258 Descending Oakland Center
Sun 02:21:20 PM 37.8133 -120.0472 256° West 513 590 35,400 -1,805 Descending Oakland Center
Sun 02:22:21 PM 37.7769 -120.2267 256° West 523 602 33,600 -1,707 Descending Oakland Center
Sun 02:23:23 PM 37.7394 -120.4067 255° West 527 606 31,900 -1,951 Descending Oakland Center
Sun 02:24:24 PM 37.7031 -120.5881 256° West 531 611 29,600 -2,293 Descending Oakland Center
Sun 02:25:26 PM 37.6661 -120.7697 256° West 534 615 27,200 -2,633 Descending Oakland Center
Sun 02:26:02 PM 37.6500 -120.8833 260° West 505 581 25,300 -3,267 Descending Northern Cal TRACON
Sun 02:27:07 PM 37.6167 -121.0667 257° West 504 580 21,700 -3,200 Descending Northern Cal TRACON
Sun 02:28:02 PM 37.6000 -121.2167 262° West 469 540 18,900 -2,504 Descending Northern Cal TRACON
Sun 02:29:02 PM 37.5833 -121.3500 261° West 419 482 16,900 -2,700 Descending Northern Cal TRACON
Sun 02:30:02 PM 37.5667 -121.5167 263° West 445 512 13,500 -3,050 Descending Northern Cal TRACON
Sun 02:31:02 PM 37.5500 -121.6500 261° West 402 463 10,800 -1,800 Descending Northern Cal TRACON
Sun 02:32:02 PM 37.5167 -121.7667 250° West 348 400 9,900 -1,316 Descending Northern Cal TRACON
Sun 02:32:56 PM 37.5000 -121.8667 258° West 305 351 8,300 -1,650 Descending Northern Cal TRACON
Sun 02:34:02 PM 37.4667 -121.9833 250° West 291 335 6,600 -1,143 Descending Northern Cal TRACON
Sun 02:35:02 PM 37.4833 -122.0500 288° West 222 255 5,900 -1,050 Descending Northern Cal TRACON
Sun 02:36:02 PM 37.5167 -122.1167 302° West 223 257 4,500 -1,118 Descending Northern Cal TRACON
Sun 02:36:44 PM 37.5283 -122.1556 291° West 218 251 4,000 -1,049 Descending Oakland Center
Sun 02:37:45 PM 37.5556 -122.2211 298° West 214 246 2,700 -1,268 Descending Oakland Center
Sun 02:38:47 PM 37.5808 -122.2819 298° West 206 237 1,400 -968 Descending Oakland Center
Sun 02:39:49 PM 37.6003 -122.3306 297° West 176 203 700 -537 Descending Oakland Center
Sun 02:40:50 PM 37.6222 -122.3797 299° West 163 188 300 -393 Descending Oakland Center
Sun 02:42:00 PM 37.6167 -122.3667 North  Level FlightAware Approximate

Login

Don't have an account? Register now (free) for customized features, flight alerts, and more!